Time;durP1;ratioP1;P1;durP2;ratioP2;P2;SDS_P1;SDS_P2;PMS_P1;PMS_P2;Temp;Humidity;BMP_temperature;BMP_pressure;BME280_temperature;BME280_humidity;BME280_pressure;Samples;Min_cycle;Max_cycle;Signal;HPM_P1;HPM_P2
2021/04/13 00:01:12;;;;;;;20.08;13.63;;;;;;;10.54;81.12;71738.03;5046992;28;20048;-87
2021/04/13 00:03:43;;;;;;;26.27;13.00;;;;;;;9.40;82.18;71607.03;5068463;28;20087;-88
2021/04/13 00:06:10;;;;;;;;;;;;;;;10.47;82.00;71729.69;5068494;28;20056;-87
2021/04/13 00:08:40;;;;;;;22.88;12.80;;;;;;;9.70;82.91;71642.13;5054733;28;19917;-87
2021/04/13 00:11:11;;;;;;;26.23;12.02;;;;;;;10.16;81.63;71691.19;5046809;28;20036;-87
2021/04/13 00:13:41;;;;;;;23.65;12.60;;;;;;;10.21;82.40;71699.88;5034788;28;20040;-87
2021/04/13 00:16:19;;;;;;;22.83;12.80;;;;;;;10.09;83.01;71686.78;5040549;28;20423;-87
2021/04/13 00:18:48;;;;;;;28.50;13.23;;;;;;;10.01;82.97;71671.78;5033176;28;20432;-87
2021/04/13 00:21:33;;;;;;;19.67;11.98;;;;;;;9.74;83.11;71646.28;5015431;28;20394;-87
2021/04/13 00:24:06;;;;;;;18.83;13.18;;;;;;;10.17;82.28;71692.38;5040913;28;20052;-86
2021/04/13 00:26:33;;;;;;;24.95;12.50;;;;;;;9.96;81.75;71671.91;5034711;28;20020;-86
2021/04/13 00:29:07;;;;;;;14.90;11.07;;;;;;;10.98;80.01;71788.66;5033986;28;20021;-87
2021/04/13 00:31:42;;;;;;;19.25;11.32;;;;;;;10.70;79.52;71756.47;5034905;28;20053;-87
2021/04/13 00:34:25;;;;;;;16.63;10.50;;;;;;;10.82;78.20;71770.78;5051888;28;20119;-88
2021/04/13 00:36:55;;;;;;;19.80;11.60;;;;;;;10.71;79.25;71757.09;5052666;28;20033;-86
2021/04/13 00:39:27;;;;;;;17.55;10.77;;;;;;;9.78;80.39;71651.06;5045631;28;20025;-86
2021/04/13 00:42:00;;;;;;;18.92;11.77;;;;;;;9.91;80.42;71665.34;5034345;28;20036;-86
2021/04/13 00:44:30;;;;;;;23.30;10.05;;;;;;;9.61;79.75;71631.41;5034643;28;20021;-86
2021/04/13 00:47:03;;;;;;;35.72;11.68;;;;;;;9.64;79.60;71632.25;5024427;28;20027;-85
2021/04/13 00:49:36;;;;;;;15.93;10.48;;;;;;;9.97;80.04;71673.09;5052125;28;20492;-85
2021/04/13 00:52:09;;;;;;;27.00;11.07;;;;;;;9.79;78.86;71651.66;5060400;28;20039;-86
2021/04/13 00:54:42;;;;;;;13.68;8.90;;;;;;;10.19;79.67;71698.09;5038578;28;20031;-86
2021/04/13 00:57:33;;;;;;;20.52;10.60;;;;;;;9.47;79.18;71615.34;5039321;28;20036;-87
2021/04/13 01:00:01;;;;;;;21.00;9.50;;;;;;;9.45;79.04;71613.56;5037195;28;20026;-84
2021/04/13 01:02:32;;;;;;;12.23;6.80;;;;;;;9.34;78.14;71608.72;5048735;28;20055;-85
2021/04/13 01:05:18;;;;;;;18.00;9.13;;;;;;;9.95;77.72;71670.13;5036948;28;20035;-86
2021/04/13 01:07:49;;;;;;;15.88;10.73;;;;;;;9.95;78.47;71670.13;5036648;28;20033;-85
2021/04/13 01:10:19;;;;;;;20.58;9.07;;;;;;;10.38;77.73;71716.78;5050809;28;20029;-85
2021/04/13 01:13:02;;;;;;;19.10;9.40;;;;;;;10.05;77.08;71679.28;5053649;28;20127;-85
2021/04/13 01:15:29;;;;;;;24.70;10.43;;;;;;;9.96;75.34;71666.41;5054110;28;20141;-83
2021/04/13 01:17:56;;;;;;;19.40;10.15;;;;;;;10.16;75.09;71694.53;5048572;28;20064;-85
2021/04/13 01:20:34;;;;;;;17.00;9.15;;;;;;;9.79;75.94;71651.66;5045341;28;20021;-84
2021/04/13 01:23:06;;;;;;;23.15;9.88;;;;;;;8.76;74.96;71528.34;5045193;28;20084;-85
2021/04/13 01:25:36;;;;;;;19.90;8.55;;;;;;;8.95;74.89;71555.25;5072134;28;20013;-87
2021/04/13 01:28:18;;;;;;;17.13;9.07;;;;;;;9.00;75.04;71561.19;5072666;28;20066;-87
2021/04/13 01:31:15;;;;;;;22.23;9.65;;;;;;;9.61;75.29;71631.41;5063214;28;20037;-85
2021/04/13 01:33:55;;;;;;;18.45;8.50;;;;;;;9.95;73.32;71670.72;5035787;28;20062;-85
2021/04/13 01:36:32;;;;;;;13.80;7.95;;;;;;;9.64;73.98;71635.00;5069028;28;20025;-85
2021/04/13 01:39:16;;;;;;;15.70;7.90;;;;;;;9.41;74.26;71608.22;5051750;28;20033;-88
2021/04/13 01:42:05;;;;;;;14.95;7.50;;;;;;;8.40;74.40;71489.44;5051969;28;20060;-87
2021/04/13 01:44:45;;;;;;;14.38;8.88;;;;;;;8.03;73.28;71450.56;5035793;28;20383;-87
2021/04/13 01:47:17;;;;;;;21.63;8.85;;;;;;;9.15;73.18;71579.06;5044491;28;20079;-87
2021/04/13 01:49:55;;;;;;;19.55;8.13;;;;;;;9.28;73.18;71593.34;5038857;28;20025;-87
2021/04/13 01:52:49;;;;;;;14.80;7.03;;;;;;;9.41;73.04;71608.81;5064037;28;20021;-86
2021/04/13 01:55:29;;;;;;;13.73;7.57;;;;;;;9.10;72.37;71573.09;5056346;28;20574;-88
2021/04/13 01:58:00;;;;;;;17.95;8.23;;;;;;;9.29;72.64;71595.09;5044775;28;20036;-86
2021/04/13 02:00:27;;;;;;;17.58;8.10;;;;;;;9.24;71.50;71588.56;5041831;28;20028;-87
2021/04/13 02:03:06;;;;;;;13.18;6.90;;;;;;;8.47;72.01;71501.13;5052619;28;20116;-87
2021/04/13 02:05:38;;;;;;;10.00;6.78;;;;;;;8.83;71.78;71542.16;5052412;28;20113;-87
2021/04/13 02:08:28;;;;;;;17.20;7.32;;;;;;;8.69;72.11;71526.13;5026961;28;20108;-87
2021/04/13 02:11:09;;;;;;;11.48;5.82;;;;;;;8.63;72.35;71519.56;5029968;28;20033;-88
2021/04/13 02:13:59;;;;;;;9.18;5.93;;;;;;;9.02;71.26;71563.56;5038722;28;20029;-87
2021/04/13 02:16:30;;;;;;;;;;;;;;;9.07;72.04;71566.78;5038896;28;20502;-87
2021/04/13 02:18:57;;;;;;;;;;;;;;;9.42;70.93;71609.41;5037749;28;19940;-85
2021/04/13 02:21:32;;;;;;;19.17;8.27;;;;;;;9.34;70.73;71600.47;5020527;28;19924;-88
2021/04/13 02:24:09;;;;;;;15.93;8.02;;;;;;;8.75;70.55;71533.22;5036696;28;20380;-90
2021/04/13 02:27:24;;;;;;;22.67;7.57;;;;;;;7.63;71.53;71404.19;5034290;28;20022;-95
2021/04/13 02:30:08;;;;;;;16.02;6.35;;;;;;;8.48;72.22;71501.69;5047293;28;20127;-95
2021/04/13 02:32:40;;;;;;;9.10;6.75;;;;;;;8.78;70.92;71536.22;5046345;28;20064;-94
2021/04/13 02:35:17;;;;;;;16.48;6.53;;;;;;;9.12;72.32;71574.88;5040097;28;20118;-94
2021/04/13 02:37:50;;;;;;;13.50;6.50;;;;;;;8.79;70.94;71537.41;5040514;28;20502;-93
2021/04/13 02:41:03;;;;;;;15.45;5.65;;;;;;;9.83;69.38;71656.41;5044988;28;20009;-96
2021/04/13 02:44:01;;;;;;;8.88;6.25;;;;;;;8.96;70.30;71556.44;5079285;28;20017;-94
2021/04/13 02:46:32;;;;;;;11.40;5.13;;;;;;;8.54;69.71;71508.84;5017589;28;20037;-96
2021/04/13 02:52:42;;;;;;;15.32;5.47;;;;;;;9.37;69.26;71604.03;5004222;28;20053;-94
2021/04/13 02:55:18;;;;;;;15.10;5.88;;;;;;;9.55;67.23;71624.28;4993302;28;20105;-94
2021/04/13 02:57:46;;;;;;;14.02;4.80;;;;;;;8.05;67.26;71452.94;5018472;28;20424;-92
2021/04/13 03:00:34;;;;;;;7.75;4.78;;;;;;;9.63;67.73;71633.78;5013413;28;20052;-90
2021/04/13 03:03:09;;;;;;;12.93;5.25;;;;;;;9.94;68.12;71666.75;5012229;28;20025;-94
2021/04/13 03:05:39;;;;;;;13.52;4.30;;;;;;;8.88;66.81;71548.13;5005094;28;20500;-92
2021/04/13 03:08:13;;;;;;;11.35;4.88;;;;;;;7.92;67.84;71435.34;5012216;28;20032;-91
2021/04/13 03:10:43;;;;;;;9.38;4.28;;;;;;;9.30;68.48;71596.31;5001200;28;20061;-89
2021/04/13 03:13:11;;;;;;;;;;;;;;;9.76;68.16;71648.69;5019196;28;20049;-88
2021/04/13 03:15:41;;;;;;;5.93;3.97;;;;;;;9.11;66.66;71574.31;5005626;28;19917;-87
2021/04/13 03:18:16;;;;;;;24.13;7.47;;;;;;;9.52;67.07;71626.78;5006003;28;20030;-89
2021/04/13 03:20:49;;;;;;;13.15;5.10;;;;;;;8.10;68.08;71454.97;5007520;28;20034;-88
2021/04/13 03:23:19;;;;;;;12.38;4.40;;;;;;;9.47;67.77;71614.75;5018623;28;20113;-89
2021/04/13 03:25:54;;;;;;;10.75;4.60;;;;;;;8.51;67.23;71505.28;5027239;28;20036;-90
2021/04/13 03:28:39;;;;;;;11.38;4.70;;;;;;;9.51;67.01;71619.53;5020416;28;20022;-93
2021/04/13 03:31:06;;;;;;;8.25;4.18;;;;;;;9.02;68.03;71563.56;5025050;28;20025;-93
2021/04/13 03:33:36;;;;;;;9.43;4.03;;;;;;;8.24;66.44;71474.34;5054617;28;20106;-94
2021/04/13 03:36:13;;;;;;;10.77;4.75;;;;;;;9.29;65.56;71595.09;5046370;28;20050;-88
2021/04/13 03:38:42;;;;;;;8.32;4.55;;;;;;;8.98;65.36;71559.41;5039075;28;20029;-89
2021/04/13 03:41:15;;;;;;;14.02;4.78;;;;;;;8.83;65.03;71542.16;5041209;28;20390;-91
2021/04/13 03:43:42;;;;;;;11.98;5.28;;;;;;;8.70;63.16;71527.31;5059430;28;20013;-91
2021/04/13 03:46:12;;;;;;;6.30;3.28;;;;;;;9.50;63.84;71616.19;5053764;28;20044;-91
2021/04/13 03:48:42;;;;;;;15.63;5.30;;;;;;;9.12;65.38;71574.88;5060698;28;20020;-92
2021/04/13 03:51:13;;;;;;;;;;;;;;;9.85;64.89;71656.66;5032084;28;20859;-93
2021/04/13 03:53:46;;;;;;;10.32;4.18;;;;;;;9.77;63.55;71647.13;5038067;28;19966;-88
2021/04/13 03:56:16;;;;;;;8.35;4.45;;;;;;;9.56;62.20;71625.47;5037250;28;20027;-89
2021/04/13 03:58:51;;;;;;;;;;;;;;;9.40;61.65;71607.59;5037114;28;20018;-89
2021/04/13 04:01:22;;;;;;;8.43;4.25;;;;;;;8.86;60.98;71545.16;5052388;28;19916;-89
2021/04/13 04:03:56;;;;;;;7.32;4.40;;;;;;;9.35;62.40;71601.66;5035800;28;20528;-87
2021/04/13 04:06:55;;;;;;;6.68;3.70;;;;;;;9.33;62.96;71599.28;5038059;28;20075;-90
2021/04/13 04:09:28;;;;;;;7.82;4.57;;;;;;;8.99;62.95;71560.59;5036635;28;19997;-93
2021/04/13 04:11:58;;;;;;;9.13;5.18;;;;;;;8.87;63.40;71546.91;5057389;28;20013;-90
2021/04/13 04:14:27;;;;;;;7.45;4.15;;;;;;;9.78;62.15;71650.47;5069359;28;20040;-90
2021/04/13 04:17:12;;;;;;;9.50;4.93;;;;;;;8.83;61.10;71541.56;5052190;28;20032;-90
2021/04/13 04:19:39;;;;;;;12.05;3.53;;;;;;;8.48;59.99;71501.69;5040484;28;20104;-86
2021/04/13 04:22:14;;;;;;;12.45;5.88;;;;;;;9.42;60.32;71610.00;5046686;28;20024;-88
2021/04/13 04:24:44;;;;;;;13.43;5.03;;;;;;;8.35;60.79;71486.84;5043661;28;20037;-89
2021/04/13 04:27:16;;;;;;;14.82;5.03;;;;;;;9.72;61.13;71643.91;5044264;28;20028;-90
2021/04/13 04:30:04;;;;;;;9.50;5.65;;;;;;;8.52;60.16;71505.88;5058215;28;20044;-96
2021/04/13 04:32:43;;;;;;;8.73;5.43;;;;;;;10.23;59.23;71702.84;5052437;28;20029;-90
2021/04/13 04:35:29;;;;;;;14.60;6.00;;;;;;;9.76;60.68;71645.94;5037269;28;20037;-93
2021/04/13 04:38:03;;;;;;;6.68;4.53;;;;;;;9.85;58.56;71658.81;5025821;28;20037;-92
2021/04/13 04:40:30;;;;;;;11.57;4.80;;;;;;;10.16;58.24;71694.53;5026166;28;20036;-92
2021/04/13 04:43:13;;;;;;;13.10;6.60;;;;;;;9.72;59.82;71641.78;5043173;28;20024;-94
2021/04/13 04:45:53;;;;;;;8.15;5.25;;;;;;;9.65;59.61;71632.84;5041883;28;20151;-93
2021/04/13 04:48:40;;;;;;;7.22;4.82;;;;;;;10.35;59.26;71715.97;5040676;28;20111;-94
2021/04/13 04:51:13;;;;;;;11.75;5.93;;;;;;;10.44;58.16;71726.72;5042444;28;20462;-94
2021/04/13 04:53:42;;;;;;;8.68;4.35;;;;;;;8.71;57.93;71528.50;5043828;28;20033;-92
2021/04/13 04:56:12;;;;;;;6.75;4.93;;;;;;;9.58;58.54;71627.84;5049444;28;20052;-95
2021/04/13 04:58:39;;;;;;;12.55;5.57;;;;;;;9.99;58.13;71674.88;5035982;28;20030;-92
2021/04/13 05:01:06;;;;;;;18.35;6.50;;;;;;;9.95;58.18;71670.72;5022879;28;20033;-93
2021/04/13 05:03:33;;;;;;;7.95;5.25;;;;;;;10.19;58.55;71695.34;5018993;28;20383;-93
2021/04/13 05:06:00;;;;;;;11.50;4.68;;;;;;;9.68;57.38;71639.75;5018655;28;20022;-93
2021/04/13 05:08:27;;;;;;;12.82;5.43;;;;;;;9.90;57.67;71662.00;5020187;28;20506;-92
2021/04/13 05:10:54;;;;;;;10.98;5.00;;;;;;;9.42;56.08;71606.66;5026496;28;20024;-96
2021/04/13 05:13:24;;;;;;;7.70;4.67;;;;;;;10.11;56.71;71688.59;5053533;28;20025;-92
2021/04/13 05:15:51;;;;;;;8.60;4.80;;;;;;;9.97;57.36;71673.09;5042633;28;20283;-92
2021/04/13 05:18:18;;;;;;;10.65;5.15;;;;;;;9.94;57.17;71669.50;5048603;28;20020;-91
2021/04/13 05:20:46;;;;;;;11.50;5.82;;;;;;;10.49;57.09;71732.06;5026731;28;20036;-88
2021/04/13 05:23:14;;;;;;;10.30;5.68;;;;;;;10.64;55.86;71749.34;5043962;28;20067;-88
2021/04/13 05:25:41;;;;;;;8.75;5.80;;;;;;;9.64;57.08;71635.00;5051559;28;20021;-91
2021/04/13 05:28:08;;;;;;;11.15;5.13;;;;;;;9.13;57.32;71576.06;5050341;28;20116;-87
2021/04/13 05:30:35;;;;;;;16.02;5.82;;;;;;;10.53;58.31;71737.44;5057685;28;20433;-85
2021/04/13 05:33:16;;;;;;;10.77;6.20;;;;;;;10.27;56.77;71707.63;5039071;28;20438;-96
2021/04/13 05:36:04;;;;;;;9.25;5.88;;;;;;;9.65;56.97;71633.44;5047061;28;20037;-91
2021/04/13 05:38:37;;;;;;;11.02;5.47;;;;;;;10.09;56.45;71686.19;5037699;28;20029;-91
2021/04/13 05:41:07;;;;;;;10.80;6.00;;;;;;;10.10;55.29;71687.41;5038360;28;20862;-87
2021/04/13 05:43:38;;;;;;;16.73;6.20;;;;;;;10.17;55.52;71695.72;5030363;28;20013;-89
2021/04/13 05:46:05;;;;;;;14.85;7.40;;;;;;;8.62;56.30;71518.38;5048752;28;20029;-89
2021/04/13 05:48:32;;;;;;;15.90;7.32;;;;;;;9.87;57.05;71661.19;5057694;28;20025;-90
2021/04/13 05:51:00;;;;;;;9.82;6.13;;;;;;;9.97;56.29;71673.09;5038171;28;20026;-88
2021/04/13 05:53:27;;;;;;;11.30;6.15;;;;;;;9.10;56.97;71573.09;5025686;28;20052;-85
2021/04/13 05:55:54;;;;;;;11.98;5.80;;;;;;;9.00;58.51;71561.19;5022996;28;20025;-86
2021/04/13 05:58:26;;;;;;;9.70;6.72;;;;;;;9.36;58.68;71602.25;5034716;28;20477;-86
2021/04/13 06:00:55;;;;;;;11.38;6.28;;;;;;;9.01;58.43;71562.38;5051763;28;21029;-88
2021/04/13 06:03:25;;;;;;;12.17;6.37;;;;;;;9.37;56.39;71603.44;5043040;28;20043;-87
2021/04/13 06:05:56;;;;;;;10.52;6.38;;;;;;;9.56;56.85;71619.97;5021397;28;20342;-87
2021/04/13 06:08:26;;;;;;;9.00;5.93;;;;;;;9.62;56.01;71632.59;5026799;28;20032;-88
2021/04/13 06:10:56;;;;;;;13.52;6.07;;;;;;;8.17;55.86;71463.28;5025100;28;20041;-88
2021/04/13 06:13:24;;;;;;;16.38;7.85;;;;;;;9.10;56.56;71570.34;5020831;28;20127;-89
2021/04/13 06:15:53;;;;;;;22.45;6.80;;;;;;;9.09;57.59;71571.31;5021218;28;20029;-89
2021/04/13 06:18:21;;;;;;;14.30;6.93;;;;;;;8.35;57.71;71486.84;5026418;28;20040;-85
2021/04/13 06:20:48;;;;;;;10.35;6.47;;;;;;;9.67;57.44;71638.56;5024388;28;20029;-89
2021/04/13 06:23:16;;;;;;;12.52;7.25;;;;;;;10.23;57.42;71702.28;5024522;28;20041;-87
2021/04/13 06:25:43;;;;;;;9.70;5.93;;;;;;;8.59;56.42;71511.47;5020665;28;20060;-88
2021/04/13 06:28:10;;;;;;;14.93;7.18;;;;;;;8.83;56.44;71542.16;5023153;28;20179;-88
2021/04/13 06:30:41;;;;;;;23.80;7.32;;;;;;;9.13;54.81;71573.94;5038349;28;20037;-88
2021/04/13 06:33:08;;;;;;;15.23;7.07;;;;;;;9.96;55.58;71671.31;5044961;28;20019;-89
2021/04/13 06:35:35;;;;;;;13.35;5.88;;;;;;;9.46;55.94;71614.16;5037200;28;20025;-88
2021/04/13 06:38:11;;;;;;;14.55;5.85;;;;;;;10.31;56.52;71711.19;5046653;28;20035;-87
2021/04/13 06:40:50;;;;;;;16.67;7.78;;;;;;;9.10;63.83;71573.09;5058127;28;20071;-88
2021/04/13 06:43:35;;;;;;;22.02;8.93;;;;;;;8.90;66.00;71550.50;5022522;28;20037;-89
2021/04/13 06:46:27;;;;;;;22.15;10.52;;;;;;;8.48;65.21;71501.69;5017926;28;20048;-90
2021/04/13 06:49:07;;;;;;;24.77;9.98;;;;;;;8.88;65.59;71548.13;5051029;28;20032;-90
2021/04/13 06:51:58;;;;;;;25.85;10.90;;;;;;;9.05;64.47;71564.41;5054853;28;20489;-90
2021/04/13 06:54:37;;;;;;;30.63;9.35;;;;;;;9.18;64.36;71582.59;5037563;28;20445;-88
2021/04/13 06:57:22;;;;;;;22.63;9.35;;;;;;;9.15;64.58;71576.31;5036999;28;20032;-89
2021/04/13 07:00:12;;;;;;;16.13;9.15;;;;;;;9.38;62.73;71604.66;5037718;28;20036;-87
2021/04/13 07:02:39;;;;;;;;;;;;;;;8.87;64.14;71546.91;5037607;28;20025;-87
2021/04/13 07:05:17;;;;;;;34.13;8.90;;;;;;;8.03;65.96;71456.03;5036810;28;19958;-89
2021/04/13 07:07:53;;;;;;;23.05;9.80;;;;;;;8.57;64.32;71512.41;5055713;28;20024;-90
2021/04/13 07:10:28;;;;;;;20.58;9.27;;;;;;;8.46;65.02;71496.59;5049279;28;20037;-94
2021/04/13 07:13:19;;;;;;;21.00;9.93;;;;;;;8.72;65.87;71529.06;5020663;28;20538;-90
2021/04/13 07:16:18;;;;;;;23.20;10.43;;;;;;;7.25;65.73;71358.69;5033730;28;20590;-94
2021/04/13 07:18:49;;;;;;;25.42;9.75;;;;;;;8.48;63.76;71502.28;5029453;28;20086;-88
2021/04/13 07:21:19;;;;;;;21.55;10.60;;;;;;;8.69;64.58;71525.50;5032297;28;20112;-86
2021/04/13 07:23:54;;;;;;;21.10;9.07;;;;;;;8.83;65.18;71544.91;5009550;28;20048;-87
2021/04/13 07:26:30;;;;;;;23.80;9.98;;;;;;;8.52;64.77;71505.88;4996256;28;20137;-89
2021/04/13 07:29:09;;;;;;;24.73;11.50;;;;;;;8.36;65.08;71488.03;5008212;28;20033;-89
2021/04/13 07:31:46;;;;;;;20.42;9.55;;;;;;;8.74;64.62;71531.47;5013459;28;20034;-86
2021/04/13 07:34:12;;;;;;;20.38;10.30;;;;;;;8.14;64.13;71462.47;5010988;28;20112;-87
2021/04/13 07:36:46;;;;;;;22.38;10.73;;;;;;;7.54;65.40;71394.09;5010889;28;20112;-87
2021/04/13 07:39:13;;;;;;;19.73;9.32;;;;;;;8.91;64.57;71548.34;5020864;28;20447;-86
2021/04/13 07:41:53;;;;;;;18.60;9.05;;;;;;;7.93;64.96;71438.69;5008002;28;20037;-84
2021/04/13 07:44:36;;;;;;;22.23;10.10;;;;;;;7.68;65.51;71410.16;5008645;28;20038;-87
2021/04/13 07:47:37;;;;;;;20.90;9.68;;;;;;;6.47;64.92;71271.16;5025457;28;20124;-85
2021/04/13 07:50:05;;;;;;;20.95;10.50;;;;;;;8.67;64.75;71523.13;5009752;28;20077;-86
2021/04/13 07:52:43;;;;;;;24.95;11.43;;;;;;;8.91;65.22;71551.06;5011026;28;20028;-84
2021/04/13 07:55:41;;;;;;;21.50;9.65;;;;;;;8.62;63.48;71518.38;5014081;28;20045;-85
2021/04/13 07:58:32;;;;;;;15.55;9.65;;;;;;;8.32;64.91;71483.28;5004303;28;20038;-88
2021/04/13 08:01:00;;;;;;;20.33;10.32;;;;;;;8.67;64.71;71520.97;5013217;28;20439;-87
2021/04/13 08:03:32;;;;;;;21.25;11.18;;;;;;;7.81;64.86;71422.84;5007548;28;20030;-88
2021/04/13 08:06:28;;;;;;;24.65;11.02;;;;;;;8.45;64.89;71498.72;5010550;28;20038;-86
2021/04/13 08:09:25;;;;;;;29.10;11.70;;;;;;;8.43;66.42;71496.34;5022425;28;20091;-86
2021/04/13 08:12:24;;;;;;;20.60;12.35;;;;;;;7.97;65.31;71442.84;5010576;28;20030;-85
2021/04/13 08:14:57;;;;;;;16.27;10.23;;;;;;;8.65;63.88;71518.59;5028241;28;20577;-86
2021/04/13 08:17:28;;;;;;;17.05;9.38;;;;;;;8.11;64.32;71458.88;5011216;28;20026;-89
2021/04/13 08:20:11;;;;;;;19.88;11.10;;;;;;;8.21;63.84;71471.38;5012326;28;20022;-85
2021/04/13 08:22:57;;;;;;;18.85;9.93;;;;;;;9.06;64.25;71567.75;5009983;28;20050;-85
2021/04/13 08:25:41;;;;;;;24.77;10.88;;;;;;;8.51;64.53;71505.28;5005235;28;20053;-83
2021/04/13 08:28:21;;;;;;;18.02;9.63;;;;;;;7.76;63.66;71419.06;5005543;28;20026;-83
2021/04/13 08:34:47;;;;;;;23.65;11.80;;;;;;;8.81;62.37;71539.78;4997596;28;20553;-83
2021/04/13 08:37:36;;;;;;;27.30;9.07;;;;;;;8.57;62.74;71512.41;5020716;28;20026;-84
2021/04/13 08:40:18;;;;;;;16.30;10.57;;;;;;;8.14;63.94;71463.03;4994930;28;20038;-82
2021/04/13 08:43:13;;;;;;;18.30;9.65;;;;;;;8.64;62.73;71520.16;5000497;28;20038;-84
2021/04/13 08:45:49;;;;;;;17.33;9.88;;;;;;;8.60;62.76;71515.38;4994177;28;20468;-83
2021/04/13 08:48:38;;;;;;;11.95;9.32;;;;;;;8.30;62.86;71481.47;5010520;28;20065;-85
2021/04/13 08:51:14;;;;;;;20.27;10.88;;;;;;;7.50;63.58;71392.66;4990095;28;20042;-84
2021/04/13 08:53:53;;;;;;;22.73;10.07;;;;;;;8.24;62.30;71474.34;4999466;28;20106;-86
2021/04/13 08:56:26;;;;;;;24.52;11.02;;;;;;;8.96;62.89;71556.44;5005903;28;20069;-85
2021/04/13 08:59:02;;;;;;;18.60;11.18;;;;;;;8.46;62.74;71499.31;5022291;28;20026;-85
2021/04/13 09:02:06;;;;;;;14.32;10.02;;;;;;;8.35;62.79;71484.69;5002586;28;20543;-85
2021/04/13 09:04:33;;;;;;;20.83;9.70;;;;;;;7.81;62.16;71422.84;5010062;28;20487;-85
2021/04/13 09:07:28;;;;;;;23.02;10.02;;;;;;;8.52;63.12;71506.47;5004261;28;20026;-84
2021/04/13 09:10:15;;;;;;;19.60;9.52;;;;;;;8.07;64.66;71452.59;5005776;28;20034;-85
2021/04/13 09:12:46;;;;;;;23.65;10.30;;;;;;;7.15;63.39;71348.94;5005062;28;20117;-84
2021/04/13 09:15:27;;;;;;;25.92;9.98;;;;;;;8.12;63.61;71460.06;5025249;28;20281;-83
2021/04/13 09:17:53;;;;;;;;;;;;;;;8.09;63.37;71457.09;5013600;28;20418;-86
2021/04/13 09:20:44;;;;;;;23.48;10.38;;;;;;;8.04;63.46;71451.16;5022317;28;19925;-82
2021/04/13 09:23:46;;;;;;;23.75;9.68;;;;;;;7.97;63.69;71443.44;5010037;28;20046;-82
2021/04/13 09:26:39;;;;;;;22.88;9.52;;;;;;;7.92;64.43;71438.06;5025243;28;20038;-87
2021/04/13 09:29:26;;;;;;;21.27;9.68;;;;;;;7.80;64.31;71424.41;5028047;28;20017;-88
2021/04/13 09:31:53;;;;;;;17.77;8.85;;;;;;;7.49;64.10;71388.75;5024355;28;20037;-86
2021/04/13 09:34:25;;;;;;;16.23;9.85;;;;;;;8.28;63.89;71479.09;5025181;28;20038;-86
2021/04/13 09:37:32;;;;;;;18.40;9.13;;;;;;;8.22;63.68;71471.97;5024670;28;20034;-90
2021/04/13 09:40:24;;;;;;;14.05;8.05;;;;;;;8.41;63.21;71493.38;5014738;28;20073;-90
2021/04/13 09:43:10;;;;;;;17.90;8.93;;;;;;;8.40;63.25;71492.78;5010556;28;20101;-88
2021/04/13 09:45:52;;;;;;;21.13;10.80;;;;;;;8.37;61.31;71488.63;5005841;28;20027;-86
2021/04/13 09:48:41;;;;;;;16.25;8.25;;;;;;;8.28;60.15;71479.09;5009888;28;20101;-87
2021/04/13 09:51:25;;;;;;;15.52;8.05;;;;;;;7.89;59.17;71434.50;5008876;28;20376;-87
2021/04/13 09:54:08;;;;;;;11.27;7.43;;;;;;;7.03;58.29;71333.16;5027803;28;20045;-87
2021/04/13 09:57:11;;;;;;;14.27;7.25;;;;;;;8.03;58.20;71450.56;5002075;28;20048;-88
2021/04/13 10:00:05;;;;;;;12.38;6.47;;;;;;;6.92;57.98;71323.41;5026677;28;20033;-87
2021/04/13 10:02:46;;;;;;;14.32;8.07;;;;;;;7.84;57.89;71427.97;5017740;28;20056;-88
2021/04/13 10:05:26;;;;;;;14.32;7.80;;;;;;;6.83;57.94;71309.97;5011739;28;20571;-94
2021/04/13 10:08:25;;;;;;;17.52;9.57;;;;;;;7.65;58.00;71406.56;5021389;28;20041;-95
2021/04/13 10:11:29;;;;;;;14.55;7.40;;;;;;;7.76;57.78;71419.66;5025050;28;20104;-95
2021/04/13 10:14:24;;;;;;;25.60;7.93;;;;;;;7.06;58.89;71338.84;5025707;28;20068;-93
2021/04/13 10:17:19;;;;;;;18.85;7.93;;;;;;;6.64;58.76;71290.72;5023950;28;20073;-94
2021/04/13 10:20:05;;;;;;;15.43;7.95;;;;;;;7.53;58.62;71393.50;5029101;28;20045;-87
2021/04/13 10:22:53;;;;;;;12.40;6.85;;;;;;;7.66;58.97;71407.75;5031001;28;20046;-88
2021/04/13 10:26:11;;;;;;;16.75;8.75;;;;;;;7.52;58.43;71392.31;5049961;28;20041;-85
2021/04/13 10:28:56;;;;;;;13.25;8.93;;;;;;;7.51;57.76;71391.13;5014642;28;20034;-83
2021/04/13 10:31:59;;;;;;;12.32;8.13;;;;;;;7.42;58.10;71380.44;5043723;28;20036;-82
2021/04/13 10:35:03;;;;;;;14.93;8.23;;;;;;;7.46;58.86;71384.59;5041439;28;20029;-83
2021/04/13 10:37:29;;;;;;;13.85;7.32;;;;;;;7.62;58.58;71403.00;5025574;28;20514;-83
2021/04/13 10:40:21;;;;;;;12.25;7.30;;;;;;;7.58;58.03;71398.25;5033024;28;20495;-84
2021/04/13 10:43:17;;;;;;;16.38;9.70;;;;;;;7.43;58.65;71381.59;5047488;28;20030;-82
2021/04/13 10:45:47;;;;;;;13.57;7.53;;;;;;;7.46;57.89;71385.19;5022870;28;20052;-83
2021/04/13 10:48:43;;;;;;;16.00;8.13;;;;;;;7.74;57.39;71417.25;5036870;28;20056;-83
2021/04/13 10:51:22;;;;;;;12.55;7.80;;;;;;;7.63;57.41;71404.81;5022375;28;20479;-81
2021/04/13 10:54:13;;;;;;;14.18;8.57;;;;;;;7.55;57.13;71394.69;5029445;28;20029;-82
2021/04/13 10:57:17;;;;;;;16.60;9.75;;;;;;;7.45;58.42;71383.41;5046120;28;20372;-83
2021/04/13 11:00:05;;;;;;;12.50;8.77;;;;;;;7.35;58.67;71372.72;5029568;28;20036;-83
2021/04/13 11:03:06;;;;;;;16.63;9.73;;;;;;;7.42;57.73;71374.94;5030953;28;20029;-83
2021/04/13 11:05:49;;;;;;;;;;;;;;;7.38;57.16;71372.94;5026624;28;20517;-82
2021/04/13 11:09:02;;;;;;;15.27;9.32;;;;;;;6.04;57.57;71222.47;5011840;28;19924;-83
2021/04/13 11:11:34;;;;;;;16.63;11.10;;;;;;;7.36;58.21;71373.91;5025873;28;20086;-83
2021/04/13 11:14:16;;;;;;;13.82;9.15;;;;;;;7.30;58.09;71366.19;5015361;28;20104;-85
2021/04/13 11:16:58;;;;;;;18.63;9.02;;;;;;;7.28;58.44;71363.78;5028514;28;20542;-83
2021/04/13 11:19:36;;;;;;;14.95;8.02;;;;;;;7.31;59.33;71367.38;5030857;28;20040;-84
2021/04/13 11:22:21;;;;;;;17.35;10.85;;;;;;;7.16;58.90;71350.72;5029406;28;20065;-85
2021/04/13 11:25:12;;;;;;;21.73;11.20;;;;;;;7.15;59.55;71349.53;5043700;28;20033;-81
2021/04/13 11:28:15;;;;;;;18.00;9.88;;;;;;;7.23;60.31;71359.03;5020858;28;20447;-80
2021/04/13 11:31:25;;;;;;;18.02;8.68;;;;;;;6.65;60.80;71292.50;5020875;28;20079;-82
2021/04/13 11:34:16;;;;;;;20.90;9.10;;;;;;;7.24;60.22;71359.63;5031376;28;20437;-81
2021/04/13 11:37:05;;;;;;;15.27;8.13;;;;;;;6.73;60.70;71300.81;5031120;28;20076;-82
2021/04/13 11:40:00;;;;;;;17.63;10.48;;;;;;;6.67;59.93;71294.88;5012025;28;20503;-82
2021/04/13 11:42:34;;;;;;;16.10;10.27;;;;;;;6.94;59.98;71325.78;5039142;28;20041;-81
2021/04/13 11:45:25;;;;;;;21.45;11.18;;;;;;;5.64;60.01;71173.44;5027864;28;20053;-84
2021/04/13 11:48:27;;;;;;;18.98;11.43;;;;;;;7.28;60.92;71361.06;5021335;28;20058;-82
2021/04/13 11:50:57;;;;;;;14.73;9.98;;;;;;;7.38;61.36;71376.25;5016436;28;20117;-82
2021/04/13 11:53:38;;;;;;;20.42;11.23;;;;;;;6.67;60.44;71294.88;5030934;28;20014;-83
2021/04/13 11:56:24;;;;;;;15.18;10.82;;;;;;;7.44;61.12;71382.22;5028400;28;20091;-83
2021/04/13 11:59:13;;;;;;;14.93;10.75;;;;;;;7.49;60.81;71388.16;5019740;28;20025;-82
2021/04/13 12:02:02;;;;;;;14.63;9.85;;;;;;;6.07;60.42;71226.00;5024927;28;20514;-84
2021/04/13 12:04:50;;;;;;;20.50;12.00;;;;;;;7.51;59.86;71388.38;5009858;28;20038;-84
2021/04/13 12:07:46;;;;;;;23.55;12.02;;;;;;;7.23;61.37;71359.03;5019443;28;20488;-83
2021/04/13 12:10:27;;;;;;;20.30;10.38;;;;;;;5.96;59.99;71212.94;5023442;28;20039;-83
2021/04/13 12:12:54;;;;;;;16.23;10.98;;;;;;;6.46;59.90;71269.97;5028475;28;20655;-82
2021/04/13 12:15:21;;;;;;;15.27;11.95;;;;;;;7.26;60.05;71362.59;5022323;28;20033;-84
2021/04/13 12:17:51;;;;;;;17.02;11.80;;;;;;;7.14;59.21;71348.34;5017977;28;20037;-85
2021/04/13 12:20:31;;;;;;;16.45;11.65;;;;;;;7.07;59.35;71340.03;5031217;28;20048;-80
2021/04/13 12:23:00;;;;;;;13.40;11.07;;;;;;;6.37;59.38;71259.84;5022848;28;20069;-83
2021/04/13 12:25:37;;;;;;;21.88;11.95;;;;;;;6.76;59.02;71304.41;5008541;28;20404;-82
2021/04/13 12:28:08;;;;;;;18.27;12.13;;;;;;;7.09;59.58;71342.41;5008975;28;20029;-82
2021/04/13 12:30:44;;;;;;;22.00;12.10;;;;;;;7.04;59.40;71336.47;5008832;28;20115;-82
2021/04/13 12:33:31;;;;;;;26.00;12.50;;;;;;;7.07;58.86;71337.31;5008379;28;20418;-82
2021/04/13 12:36:02;;;;;;;13.80;11.73;;;;;;;7.07;59.06;71340.03;5009282;28;20041;-81